EKGO weather

Gørlev Flyveplads
Gørlev, Zealand, Denmark

Public forecast

Using degrees Celsius for public forecast. Weather courtesy of forecast.io.

METAR (pilot weather report)

Closest report is Odense Airport, 29.7 nm (55.1 km) W. Retrieved 2019/09/23 05:20 UTC (30 minutes ago):

EKOD 230520Z 10014G25KT 080V150 9999 BKN011 14/13 Q1014

TAF (pilot weather forecast)

Forecast is more than 12 hours old.

Closest forecast is Aarhus Airport, 48.9 nm (90.5 km) NNW. Retrieved 2019/09/22 00:30 UTC (1 day ago):

TAF EKAH 222303Z 2300/2324 12015KT 9999 BKN015 TEMPO 2300/2309 BKN006